Portada
METAR-TAF:

METAR-TAF

Aeroports :

Mae Hong Son, Tailàndia

latitud: 19-18N, longitud: 097-50E, altitud: 267 m

Observació

L'informe es va fer fa 9 hores i 32 minuts, a les 12:00 UTC
Vent 7 kt del Sud
Temperatura 31°C
Humitat 33%
Pressió 1011 hPa
Visibilitat: 5000 m
Escasses núvols a una alçada de 2500 ft
calitja

METAR: VTCH 181200Z 18007KT 5000 HZ FEW025 31/13 Q1011

Hora: 04:32 (21:32 UTC)

Pronòstic

L'informe es va fer fa 4 hores i 32 minuts, a les 17:00 UTC
Pronòstic vàlid del 18 a les 18 UTC al 19 a les 18 UTC
Vent 5 kt del Sud
Visibilitat: 5000 m
calitja
Evolucionant progressivament
l' 18 a les 22 UTC al 18 a les 24 UTC
Visibilitat: 2500 m
boirina
Evolucionant progressivament
l' 19 a les 04 UTC al 19 a les 06 UTC
Visibilitat: 5000 m
calitja

TAF: VTCH 181700Z 1818/1918 18005KT 5000 HZ NSC BECMG 1822/1824 2500 BR BECMG 1904/1906 5000 HZ

Observacions i pronòstics meteorològics de més de 4000 aeroports (METAR i TAF).

Les estacions disponibles són els punts grocs i vermells al mapa.

Posi el ratolí al punt desitjat per veure el nom de l'estació.

Feu clic per veure les observacions i els pronòstics meteorològics.

Per canviar el mapa: feu clic els botons verds amb una creu de color negre per apropar; al botó verd amb un guió per allunyar la imatge; o en les fletxes verdes per a mapes adjacents.


METAR-TAF: